createdAt,value
2018-11-21T00:01:35.056Z,-0.60
2018-11-21T00:04:03.362Z,-0.60
2018-11-21T00:06:31.920Z,-0.70
2018-11-21T00:09:00.216Z,-0.70
2018-11-21T00:11:29.046Z,-0.70
2018-11-21T00:13:57.359Z,-0.70
2018-11-21T00:16:25.957Z,-0.60
2018-11-21T00:19:00.517Z,-0.60
2018-11-21T00:21:22.767Z,-0.60
2018-11-21T00:23:51.566Z,-0.60
2018-11-21T00:26:19.859Z,-0.50
2018-11-21T00:28:48.673Z,-0.50
2018-11-21T00:31:17.251Z,-0.60
2018-11-21T00:33:46.302Z,-0.60
2018-11-21T00:36:14.594Z,-0.70
2018-11-21T00:38:43.396Z,-0.70
2018-11-21T00:41:11.699Z,-0.70
2018-11-21T00:43:40.239Z,-0.80
2018-11-21T00:46:09.029Z,-0.70
2018-11-21T00:48:37.637Z,-0.70
2018-11-21T00:51:06.195Z,-0.70
2018-11-21T00:53:34.749Z,-0.80
2018-11-21T00:56:03.309Z,-0.70
2018-11-21T00:58:31.853Z,-0.60
2018-11-21T01:01:00.642Z,-0.50
2018-11-21T01:03:28.940Z,-0.50
2018-11-21T01:05:57.759Z,-0.50
2018-11-21T01:08:26.066Z,-0.60
2018-11-21T01:10:54.629Z,-0.70
2018-11-21T01:13:23.160Z,-0.70
2018-11-21T01:15:52.235Z,-0.80
2018-11-21T01:18:20.799Z,-0.80
2018-11-21T01:20:49.500Z,-0.70
2018-11-21T01:23:18.293Z,-0.70
2018-11-21T01:25:46.870Z,-0.70
2018-11-21T01:28:15.421Z,-0.70
2018-11-21T01:30:44.265Z,-0.70
2018-11-21T01:33:13.024Z,-0.80
2018-11-21T01:35:41.848Z,-0.80
2018-11-21T01:38:10.923Z,-0.80
2018-11-21T01:40:39.501Z,-0.70
2018-11-21T01:43:08.063Z,-0.70
2018-11-21T01:45:36.624Z,-0.60
2018-11-21T01:48:05.377Z,-0.70
2018-11-21T01:50:34.456Z,-0.70
2018-11-21T01:53:03.289Z,-0.70
2018-11-21T01:55:31.876Z,-0.60
2018-11-21T01:58:00.418Z,-0.60
2018-11-21T02:00:28.730Z,-0.60
2018-11-21T02:02:57.326Z,-0.70
2018-11-21T02:05:26.149Z,-0.60
2018-11-21T02:07:54.431Z,-0.60
2018-11-21T02:10:23.534Z,-0.60
2018-11-21T02:12:52.609Z,-0.70
2018-11-21T02:15:21.413Z,-0.60
2018-11-21T02:17:50.247Z,-0.50
2018-11-21T02:20:19.298Z,-0.50
2018-11-21T02:22:47.872Z,-0.60
2018-11-21T02:25:16.691Z,-0.60
2018-11-21T02:27:45.753Z,-0.60
2018-11-21T02:30:14.030Z,-0.60
2018-11-21T02:32:42.572Z,-0.60
2018-11-21T02:35:11.120Z,-0.60
2018-11-21T02:37:39.680Z,-0.60
2018-11-21T02:40:08.724Z,-0.60
2018-11-21T02:42:37.626Z,-0.50
2018-11-21T02:45:06.497Z,-0.50
2018-11-21T02:47:34.785Z,-0.50
2018-11-21T02:50:03.334Z,-0.50
2018-11-21T02:52:32.132Z,-0.40
2018-11-21T02:55:00.688Z,-0.40
2018-11-21T02:57:33.553Z,-0.40
2018-11-21T03:00:07.437Z,-0.50
2018-11-21T03:02:35.995Z,-0.50
2018-11-21T03:05:04.539Z,-0.50
2018-11-21T03:07:32.853Z,-0.50
2018-11-21T03:10:01.713Z,-0.50
2018-11-21T03:12:31.579Z,-0.60
2018-11-21T03:14:59.887Z,-0.60
2018-11-21T03:17:28.696Z,-0.40
2018-11-21T03:19:57.516Z,-0.40
2018-11-21T03:22:26.321Z,-0.50
2018-11-21T03:24:55.173Z,-0.50
2018-11-21T03:27:23.965Z,-0.50
2018-11-21T03:29:52.531Z,-0.40
2018-11-21T03:32:21.092Z,-0.40
2018-11-21T03:34:49.654Z,-0.30
2018-11-21T03:37:18.205Z,-0.40
2018-11-21T03:39:46.769Z,-0.40
2018-11-21T03:42:15.577Z,-0.30
2018-11-21T03:44:44.393Z,-0.20
2018-11-21T03:47:12.944Z,-0.20
2018-11-21T03:49:41.997Z,-0.20
2018-11-21T03:52:10.822Z,-0.20
2018-11-21T03:54:39.627Z,-0.20
2018-11-21T03:57:08.199Z,-0.20
2018-11-21T03:59:36.991Z,-0.20
2018-11-21T04:02:05.961Z,-0.20
2018-11-21T04:04:34.256Z,-0.30
2018-11-21T04:07:03.315Z,-0.30
2018-11-21T04:09:31.625Z,-0.40
2018-11-21T04:12:00.187Z,-0.30
2018-11-21T04:14:29.006Z,-0.40
2018-11-21T04:16:57.815Z,-0.40
2018-11-21T04:19:26.623Z,-0.50
2018-11-21T04:21:56.906Z,-0.50
2018-11-21T04:24:25.719Z,-0.50
2018-11-21T04:26:54.271Z,-0.50
2018-11-21T04:29:23.073Z,-0.50
2018-11-21T04:31:51.360Z,-0.40
2018-11-21T04:34:19.653Z,-0.30
2018-11-21T04:36:48.215Z,-0.30
2018-11-21T04:39:16.771Z,-0.30
2018-11-21T04:41:45.326Z,-0.30
2018-11-21T04:44:13.921Z,-0.30
2018-11-21T04:46:42.711Z,-0.30
2018-11-21T04:49:11.004Z,-0.30
2018-11-21T04:51:39.545Z,-0.40
2018-11-21T04:54:08.383Z,-0.40
2018-11-21T04:56:36.678Z,-0.40
2018-11-21T04:59:06.000Z,-0.50
2018-11-21T05:01:34.940Z,-0.40
2018-11-21T05:04:03.513Z,-0.40
2018-11-21T05:06:32.057Z,-0.30
2018-11-21T05:09:00.339Z,-0.30
2018-11-21T05:11:29.186Z,-0.30
2018-11-21T05:13:58.022Z,-0.30
2018-11-21T05:16:26.573Z,-0.40
2018-11-21T05:18:55.131Z,-0.50
2018-11-21T05:21:23.924Z,-0.50
2018-11-21T05:23:52.212Z,-0.40
2018-11-21T05:26:20.499Z,-0.40
2018-11-21T05:28:49.324Z,-0.40
2018-11-21T05:31:18.113Z,-0.40
2018-11-21T05:33:46.895Z,-0.30
2018-11-21T05:36:15.367Z,-0.30
2018-11-21T05:38:43.917Z,-0.30
2018-11-21T05:41:12.473Z,-0.20
2018-11-21T05:43:41.035Z,-0.20
2018-11-21T05:46:09.667Z,-0.20
2018-11-21T05:48:37.993Z,-0.10
2018-11-21T05:51:06.545Z,-0.20
2018-11-21T05:53:35.101Z,-0.30
2018-11-21T05:56:03.639Z,-0.40
2018-11-21T05:58:31.941Z,-0.40
2018-11-21T06:01:00.492Z,-0.40
2018-11-21T06:03:29.041Z,-0.50
2018-11-21T06:05:57.591Z,-0.40
2018-11-21T06:08:26.467Z,-0.50
2018-11-21T06:10:55.293Z,-0.50
2018-11-21T06:13:23.833Z,-0.40
2018-11-21T06:15:52.633Z,-0.40
2018-11-21T06:18:20.927Z,-0.30
2018-11-21T06:20:49.480Z,-0.30
2018-11-21T06:23:18.029Z,-0.30
2018-11-21T06:25:46.929Z,-0.30
2018-11-21T06:28:15.495Z,-0.40
2018-11-21T06:30:43.785Z,-0.40
2018-11-21T06:33:12.384Z,-0.40
2018-11-21T06:35:41.180Z,-0.30
2018-11-21T06:38:09.751Z,-0.30
2018-11-21T06:40:38.035Z,-0.30
2018-11-21T06:43:06.883Z,-0.30
2018-11-21T06:45:35.448Z,-0.30
2018-11-21T06:48:03.987Z,-0.30
2018-11-21T06:50:32.809Z,-0.30
2018-11-21T06:53:01.591Z,-0.30
2018-11-21T06:55:30.159Z,-0.20
2018-11-21T06:57:58.701Z,0.00
2018-11-21T07:00:27.534Z,0.00
2018-11-21T07:02:56.652Z,0.00
2018-11-21T07:05:25.222Z,0.00
2018-11-21T07:07:54.374Z,0.00
2018-11-21T07:10:23.171Z,-0.10
2018-11-21T07:12:52.002Z,-0.10
2018-11-21T07:15:20.836Z,-0.10
2018-11-21T07:17:49.144Z,-0.10
2018-11-21T07:20:17.426Z,-0.10
2018-11-21T07:22:45.738Z,-0.10
2018-11-21T07:25:16.783Z,-0.10
2018-11-21T07:27:45.441Z,-0.10
2018-11-21T07:30:17.458Z,-0.10
2018-11-21T07:32:46.268Z,-0.10
2018-11-21T07:35:18.092Z,-0.10
2018-11-21T07:37:44.637Z,0.00
2018-11-21T07:40:14.475Z,0.00
2018-11-21T07:42:44.407Z,0.00
2018-11-21T07:45:14.718Z,0.00
2018-11-21T07:47:44.028Z,0.00
2018-11-21T07:50:14.981Z,0.00
2018-11-21T07:52:43.615Z,0.10
2018-11-21T07:55:13.250Z,0.10
2018-11-21T07:57:49.719Z,0.10
2018-11-21T08:01:05.901Z,0.20
2018-11-21T08:03:53.377Z,0.10
2018-11-21T08:06:41.440Z,0.20
2018-11-21T08:09:27.574Z,0.10
2018-11-21T08:12:33.085Z,0.10
2018-11-21T08:15:32.577Z,0.10
2018-11-21T08:18:20.288Z,0.10
2018-11-21T08:20:58.867Z,0.30
2018-11-21T08:23:39.850Z,0.20
2018-11-21T08:26:26.035Z,0.30
2018-11-21T08:28:54.877Z,0.30
2018-11-21T08:31:23.731Z,0.30
2018-11-21T08:33:52.810Z,0.40
2018-11-21T08:36:21.368Z,0.40
2018-11-21T08:38:49.911Z,0.40
2018-11-21T08:41:18.460Z,0.40
2018-11-21T08:43:47.036Z,0.40
2018-11-21T08:46:15.834Z,0.50
2018-11-21T08:48:44.385Z,0.50
2018-11-21T08:51:12.674Z,0.50
2018-11-21T08:53:41.480Z,0.60
2018-11-21T08:56:10.286Z,0.60
2018-11-21T08:58:38.848Z,0.60
2018-11-21T09:01:07.418Z,0.60
2018-11-21T09:03:36.231Z,0.60
2018-11-21T09:06:04.986Z,0.60
2018-11-21T09:08:33.546Z,0.70
2018-11-21T09:11:02.354Z,0.60
2018-11-21T09:13:31.169Z,0.60
2018-11-21T09:15:59.755Z,0.60
2018-11-21T09:18:28.550Z,0.40
2018-11-21T09:20:57.141Z,0.40
2018-11-21T09:23:26.123Z,0.40
2018-11-21T09:25:54.934Z,0.50
2018-11-21T09:28:23.305Z,0.40
2018-11-21T09:30:52.081Z,0.50
2018-11-21T09:33:21.001Z,0.50
2018-11-21T09:35:49.706Z,0.50
2018-11-21T09:38:18.801Z,0.50
2018-11-21T09:40:47.334Z,0.30
2018-11-21T09:43:16.374Z,0.20
2018-11-21T09:45:44.992Z,0.30
2018-11-21T09:48:13.544Z,0.30
2018-11-21T09:50:42.365Z,0.40
2018-11-21T09:53:10.655Z,0.60
2018-11-21T09:55:40.548Z,0.60
2018-11-21T09:58:07.755Z,0.60
2018-11-21T10:01:28.330Z,0.40
2018-11-21T10:04:00.926Z,0.30
2018-11-21T10:06:27.667Z,0.30
2018-11-21T10:09:05.171Z,0.30
2018-11-21T10:11:34.952Z,0.30
2018-11-21T10:14:03.488Z,0.30
2018-11-21T10:16:31.779Z,0.30
2018-11-21T10:19:00.420Z,0.30
2018-11-21T10:21:30.861Z,0.50
2018-11-21T10:23:59.464Z,0.50
2018-11-21T10:26:28.281Z,0.50
2018-11-21T10:28:56.596Z,0.60
2018-11-21T10:31:25.395Z,0.60
2018-11-21T10:33:53.975Z,0.70
2018-11-21T10:36:22.302Z,0.70
2018-11-21T10:38:50.875Z,0.70
2018-11-21T10:41:19.419Z,0.80
2018-11-21T10:43:47.991Z,0.80
2018-11-21T10:46:16.824Z,0.80
2018-11-21T10:48:45.155Z,0.80
2018-11-21T10:51:15.017Z,0.80
2018-11-21T10:53:42.304Z,0.90
2018-11-21T10:56:11.495Z,1.00
2018-11-21T10:58:40.310Z,1.00
2018-11-21T11:01:27.196Z,0.90
2018-11-21T11:04:17.633Z,0.70
2018-11-21T11:07:04.046Z,0.80
2018-11-21T11:10:00.262Z,0.80
2018-11-21T11:13:03.364Z,0.90
2018-11-21T11:15:42.576Z,0.90
2018-11-21T11:18:42.064Z,1.00
2018-11-21T11:21:32.526Z,1.00
2018-11-21T11:24:26.157Z,1.20
2018-11-21T11:27:12.365Z,1.30
2018-11-21T11:30:00.976Z,1.20
2018-11-21T11:32:36.526Z,1.20
2018-11-21T11:35:39.627Z,1.20
2018-11-21T11:38:36.199Z,1.10
2018-11-21T11:41:22.456Z,1.00
2018-11-21T11:44:21.899Z,1.10
2018-11-21T11:47:08.078Z,1.10
2018-11-21T11:49:55.557Z,1.10
2018-11-21T11:52:41.445Z,1.00
2018-11-21T11:55:46.842Z,1.00
2018-11-21T11:58:34.798Z,1.00
2018-11-21T12:01:20.702Z,1.00
2018-11-21T12:04:19.806Z,1.10
2018-11-21T12:07:13.341Z,1.20
2018-11-21T12:10:05.129Z,1.20
2018-11-21T12:12:58.401Z,1.10
2018-11-21T12:15:41.386Z,1.10
2018-11-21T12:18:40.921Z,1.10
2018-11-21T12:21:43.422Z,1.20
2018-11-21T12:24:42.893Z,1.20
2018-11-21T12:27:30.581Z,1.20
2018-11-21T12:30:20.777Z,1.20
2018-11-21T12:33:11.308Z,1.20
2018-11-21T12:36:11.128Z,1.30
2018-11-21T12:38:57.453Z,1.30
2018-11-21T12:41:50.876Z,1.30
2018-11-21T12:44:44.081Z,1.30
2018-11-21T12:47:48.205Z,1.30
2018-11-21T12:50:50.370Z,1.30
2018-11-21T12:53:36.208Z,1.30
2018-11-21T12:56:15.342Z,1.30
2018-11-21T12:59:04.005Z,1.30
2018-11-21T13:01:51.461Z,1.20
2018-11-21T13:04:35.636Z,1.30
2018-11-21T13:07:18.700Z,1.30
2018-11-21T13:09:57.790Z,1.30
2018-11-21T13:12:35.601Z,1.20
2018-11-21T13:15:29.757Z,1.10
2018-11-21T13:18:23.832Z,1.00
2018-11-21T13:21:14.747Z,1.00
2018-11-21T13:24:12.409Z,1.00
2018-11-21T13:26:58.920Z,1.10
2018-11-21T13:29:54.983Z,1.10
2018-11-21T13:32:40.850Z,1.20
2018-11-21T13:35:28.562Z,1.20
2018-11-21T13:38:10.441Z,1.30
2018-11-21T13:40:56.752Z,1.30
2018-11-21T13:43:44.186Z,1.30
2018-11-21T13:46:29.691Z,1.30
2018-11-21T13:49:15.504Z,1.30
2018-11-21T13:52:15.475Z,1.40
2018-11-21T13:54:48.715Z,1.40
2018-11-21T13:57:18.532Z,1.40
2018-11-21T13:59:47.087Z,1.40
2018-11-21T14:02:15.345Z,1.30
2018-11-21T14:04:44.115Z,1.20
2018-11-21T14:07:12.669Z,1.10
2018-11-21T14:09:41.186Z,1.20
2018-11-21T14:12:09.633Z,1.20
2018-11-21T14:14:38.340Z,1.20
2018-11-21T14:17:06.773Z,1.20
2018-11-21T14:19:35.290Z,1.10
2018-11-21T14:22:03.809Z,1.10
2018-11-21T14:24:32.112Z,1.00
2018-11-21T14:27:00.364Z,1.10
2018-11-21T14:29:28.623Z,1.10
2018-11-21T14:31:57.158Z,1.00
2018-11-21T14:34:25.511Z,1.00
2018-11-21T14:36:54.010Z,1.00
2018-11-21T14:39:22.819Z,1.10
2018-11-21T14:41:51.343Z,1.00
2018-11-21T14:44:19.621Z,1.00
2018-11-21T14:46:50.265Z,0.90
2018-11-21T14:49:19.125Z,0.90
2018-11-21T14:51:47.647Z,0.90
2018-11-21T14:54:16.429Z,0.80
2018-11-21T14:56:45.204Z,0.90
2018-11-21T14:59:13.972Z,0.90
2018-11-21T15:01:43.265Z,0.90
2018-11-21T15:04:11.546Z,0.90
2018-11-21T15:06:39.814Z,0.80
2018-11-21T15:09:09.657Z,0.90
2018-11-21T15:11:38.849Z,0.90
2018-11-21T15:14:07.651Z,0.90
2018-11-21T15:16:36.980Z,1.00
2018-11-21T15:19:04.190Z,0.90
2018-11-21T15:21:32.701Z,0.80
2018-11-21T15:24:00.970Z,0.80
2018-11-21T15:26:29.685Z,0.90
2018-11-21T15:28:58.223Z,0.90
2018-11-21T15:31:26.483Z,1.00
2018-11-21T15:33:54.753Z,1.00
2018-11-21T15:36:23.016Z,1.10
2018-11-21T15:38:54.197Z,1.10
2018-11-21T15:41:22.460Z,1.20
2018-11-21T15:43:50.833Z,1.20
2018-11-21T15:46:19.592Z,1.20
2018-11-21T15:48:47.926Z,1.20
2018-11-21T15:51:16.246Z,1.40
2018-11-21T15:53:44.512Z,1.40
2018-11-21T15:56:13.725Z,1.50
2018-11-21T15:58:42.278Z,1.50
2018-11-21T16:01:11.333Z,1.50
2018-11-21T16:03:39.907Z,1.40
2018-11-21T16:06:09.647Z,1.40
2018-11-21T16:08:37.189Z,1.40
2018-11-21T16:11:05.466Z,1.50
2018-11-21T16:13:34.288Z,1.60
2018-11-21T16:16:02.552Z,1.60
2018-11-21T16:18:30.857Z,1.70
2018-11-21T16:20:59.385Z,1.70
2018-11-21T16:23:27.896Z,1.70
2018-11-21T16:25:56.935Z,1.70
2018-11-21T16:28:25.453Z,1.80
2018-11-21T16:30:54.042Z,2.00
2018-11-21T16:33:22.540Z,2.10
2018-11-21T16:35:50.825Z,2.10
2018-11-21T16:38:19.106Z,2.20
2018-11-21T16:40:47.359Z,2.20
2018-11-21T16:43:15.921Z,2.20
2018-11-21T16:45:46.230Z,2.20
2018-11-21T16:48:15.034Z,2.20
2018-11-21T16:50:43.321Z,2.30
2018-11-21T16:53:11.843Z,2.30
2018-11-21T16:55:40.115Z,2.40
2018-11-21T16:58:08.462Z,2.40
2018-11-21T17:00:36.997Z,2.40
2018-11-21T17:03:05.985Z,2.40
2018-11-21T17:05:34.527Z,2.20
2018-11-21T17:08:03.311Z,2.00
2018-11-21T17:10:32.158Z,2.10
2018-11-21T17:13:00.689Z,2.20
2018-11-21T17:15:31.133Z,2.20
2018-11-21T17:17:59.397Z,2.20
2018-11-21T17:20:32.585Z,2.30
2018-11-21T17:23:01.294Z,2.30
2018-11-21T17:25:31.199Z,2.30
2018-11-21T17:27:59.462Z,2.40
2018-11-21T17:30:27.729Z,2.40
2018-11-21T17:32:56.104Z,2.40
2018-11-21T17:35:24.994Z,2.40
2018-11-21T17:37:54.329Z,2.40
2018-11-21T17:40:25.941Z,2.40
2018-11-21T17:42:54.719Z,2.40
2018-11-21T17:45:23.229Z,2.50
2018-11-21T17:47:51.494Z,2.50
2018-11-21T17:50:21.839Z,2.40
2018-11-21T17:52:54.565Z,2.40
2018-11-21T17:55:24.620Z,2.30
2018-11-21T17:57:53.665Z,2.40
2018-11-21T18:00:24.302Z,2.40
2018-11-21T18:02:52.739Z,2.30
2018-11-21T18:05:23.701Z,2.40
2018-11-21T18:07:52.369Z,2.30
2018-11-21T18:10:25.321Z,2.30
2018-11-21T18:12:54.022Z,2.30
2018-11-21T18:15:23.187Z,2.20
2018-11-21T18:17:51.506Z,2.30
2018-11-21T18:20:20.739Z,2.20
2018-11-21T18:22:50.174Z,2.20
2018-11-21T18:25:20.597Z,2.20
2018-11-21T18:27:49.131Z,2.20
2018-11-21T18:30:19.270Z,2.20
2018-11-21T18:32:47.917Z,2.30
2018-11-21T18:35:18.045Z,2.30
2018-11-21T18:37:47.163Z,2.30
2018-11-21T18:40:26.769Z,2.30
2018-11-21T18:42:55.235Z,2.30
2018-11-21T18:45:30.000Z,2.20
2018-11-21T18:47:58.348Z,2.20
2018-11-21T18:50:26.880Z,2.10
2018-11-21T18:52:56.420Z,2.10
2018-11-21T18:55:26.888Z,2.10
2018-11-21T18:58:14.062Z,2.10
2018-11-21T19:00:43.866Z,2.00
2018-11-21T19:03:12.400Z,2.00
2018-11-21T19:05:40.660Z,2.00
2018-11-21T19:08:09.225Z,2.10
2018-11-21T19:10:37.773Z,2.10
2018-11-21T19:13:06.440Z,2.10
2018-11-21T19:15:34.965Z,2.10
2018-11-21T19:18:03.762Z,2.10
2018-11-21T19:20:32.573Z,2.20
2018-11-21T19:23:00.853Z,2.10
2018-11-21T19:25:29.440Z,2.10
2018-11-21T19:27:58.248Z,2.20
2018-11-21T19:30:26.825Z,2.20
2018-11-21T19:32:55.332Z,2.20
2018-11-21T19:35:23.874Z,2.20
2018-11-21T19:37:52.690Z,2.20
2018-11-21T19:40:21.224Z,2.10
2018-11-21T19:42:50.041Z,2.10
2018-11-21T19:45:18.309Z,2.20
2018-11-21T19:47:47.216Z,2.20
2018-11-21T19:50:17.229Z,2.20
2018-11-21T19:52:46.224Z,2.30
2018-11-21T19:55:16.384Z,2.20
2018-11-21T19:57:45.467Z,2.30
2018-11-21T20:00:22.388Z,2.30
2018-11-21T20:02:50.922Z,2.30
2018-11-21T20:05:19.505Z,2.20
2018-11-21T20:07:47.773Z,2.20
2018-11-21T20:10:17.122Z,2.20
2018-11-21T20:12:45.749Z,2.20
2018-11-21T20:15:15.701Z,2.20
2018-11-21T20:17:46.615Z,2.00
2018-11-21T20:20:16.413Z,2.10
2018-11-21T20:22:45.523Z,2.10
2018-11-21T20:25:15.335Z,2.10
2018-11-21T20:27:43.872Z,2.00
2018-11-21T20:30:17.911Z,2.00
2018-11-21T20:32:46.192Z,2.00
2018-11-21T20:35:15.004Z,2.00
2018-11-21T20:37:43.804Z,1.90
2018-11-21T20:40:17.372Z,2.00
2018-11-21T20:42:46.718Z,2.00
2018-11-21T20:45:16.642Z,2.10
2018-11-21T20:47:45.730Z,2.10
2018-11-21T20:50:14.277Z,2.00
2018-11-21T20:52:43.567Z,2.00
2018-11-21T20:55:12.893Z,2.10
2018-11-21T20:57:41.883Z,2.10
2018-11-21T21:00:15.343Z,1.90
2018-11-21T21:02:43.866Z,1.80
2018-11-21T21:05:14.029Z,1.80
2018-11-21T21:07:43.238Z,1.80
2018-11-21T21:10:17.760Z,1.90
2018-11-21T21:12:46.030Z,1.90
2018-11-21T21:15:14.570Z,1.90
2018-11-21T21:17:44.491Z,1.90
2018-11-21T21:20:14.942Z,1.90
2018-11-21T21:22:44.067Z,1.90
2018-11-21T21:25:14.064Z,2.00
2018-11-21T21:27:42.373Z,1.90
2018-11-21T21:30:14.162Z,1.90
2018-11-21T21:32:43.614Z,2.00
2018-11-21T21:35:13.186Z,2.00
2018-11-21T21:37:41.737Z,2.00
2018-11-21T21:40:12.350Z,2.00
2018-11-21T21:42:40.837Z,1.90
2018-11-21T21:45:11.199Z,1.90
2018-11-21T21:47:41.673Z,1.90
2018-11-21T21:50:09.561Z,2.00
2018-11-21T21:52:38.348Z,2.00
2018-11-21T21:55:08.092Z,2.00
2018-11-21T21:57:36.647Z,2.10
2018-11-21T22:00:10.504Z,2.10
2018-11-21T22:02:38.801Z,2.00
2018-11-21T22:05:08.273Z,2.00
2018-11-21T22:07:36.966Z,2.00
2018-11-21T22:10:07.030Z,2.00
2018-11-21T22:12:35.578Z,2.00
2018-11-21T22:15:03.869Z,2.10
2018-11-21T22:17:32.942Z,2.00
2018-11-21T22:20:01.609Z,2.10
2018-11-21T22:22:30.439Z,2.10
2018-11-21T22:24:58.721Z,2.10
2018-11-21T22:27:26.989Z,2.00
2018-11-21T22:29:55.796Z,2.00
2018-11-21T22:32:24.329Z,2.00
2018-11-21T22:34:52.900Z,2.00
2018-11-21T22:37:21.587Z,2.00
2018-11-21T22:39:49.912Z,2.10
2018-11-21T22:42:18.466Z,2.10
2018-11-21T22:44:46.737Z,2.10
2018-11-21T22:47:15.308Z,2.10
2018-11-21T22:49:43.879Z,2.00
2018-11-21T22:52:12.176Z,2.10
2018-11-21T22:54:40.725Z,2.10
2018-11-21T22:57:09.297Z,2.20
2018-11-21T22:59:38.073Z,2.20
2018-11-21T23:02:07.152Z,2.20
2018-11-21T23:04:35.688Z,2.20
2018-11-21T23:07:04.559Z,2.20
2018-11-21T23:09:33.201Z,2.20
2018-11-21T23:12:01.494Z,2.20
2018-11-21T23:14:30.094Z,2.20
2018-11-21T23:16:58.902Z,2.30
2018-11-21T23:19:27.187Z,2.20
2018-11-21T23:21:55.718Z,2.20
2018-11-21T23:24:24.038Z,2.20
2018-11-21T23:26:52.589Z,2.20
2018-11-21T23:29:21.141Z,2.20
2018-11-21T23:31:49.739Z,2.10
2018-11-21T23:34:18.270Z,2.10
2018-11-21T23:36:46.843Z,2.00
2018-11-21T23:39:15.181Z,2.10
2018-11-21T23:41:43.781Z,2.10
2018-11-21T23:44:12.353Z,2.10
2018-11-21T23:46:41.232Z,2.10
2018-11-21T23:49:09.786Z,2.20
2018-11-21T23:51:38.600Z,2.20
2018-11-21T23:54:06.875Z,2.10
2018-11-21T23:56:35.421Z,2.20
2018-11-21T23:59:03.752Z,2.20
